Wetterdaten: Woche 07.03.11 - 13.03.11 (KW10)
Datum Zeit Temp. Innen Temp. Aussen UV X Diff Temp. Feuchte Inne Feuchte Auss Sonnenschein Luftdruck Regen ab 0,1 Wind Sonnenschein T Regendauer Windben
07.03.2011 00:00 12,2 C 0,0 C 0,0 UV-I 0,0 C 41 % 70 % 0 % 1031,9 hPa 0,0 l/m 0,0 km/h (0 Bft) 0,00 h 0,00 h 0,0 km/h (0 Bft)
07.03.2011 01:00 12,0 C -0,9 C 0,0 UV-I 0,0 C 41 % 72 % 0 % 1031,9 hPa 0,0 l/m 0,0 km/h (0 Bft) 0,00 h 0,00 h 0,0 km/h (0 Bft)
07.03.2011 02:00 11,8 C -1,9 C 0,0 UV-I 0,0 C 41 % 75 % 0 % 1031,9 hPa 0,0 l/m 0,0 km/h (0 Bft) 0,00 h 0,00 h 0,0 km/h (0 Bft)
07.03.2011 03:00 11,6 C -1,9 C 0,0 UV-I 0,0 C 41 % 76 % 0 % 1032,0 hPa 0,0 l/m 0,0 km/h (0 Bft) 0,00 h 0,00 h 0,1 km/h (0 Bft)
07.03.2011 04:00 11,5 C -1,9 C 0,0 UV-I 0,0 C 41 % 76 % 0 % 1032,0 hPa 0,0 l/m 0,0 km/h (0 Bft) 0,00 h 0,00 h 0,0 km/h (0 Bft)
07.03.2011 05:00 11,3 C -2,7 C 0,0 UV-I 0,0 C 41 % 77 % 0 % 1032,1 hPa 0,0 l/m 0,0 km/h (0 Bft) 0,00 h 0,00 h 0,0 km/h (0 Bft)
07.03.2011 06:00 11,2 C -2,3 C 0,0 UV-I 0,0 C 41 % 77 % 0 % 1032,4 hPa 0,0 l/m 0,0 km/h (0 Bft) 0,00 h 0,00 h 0,4 km/h (0 Bft)
07.03.2011 07:00 11,1 C -1,4 C 0,0 UV-I 0,0 C 40 % 74 % 0 % 1032,6 hPa 0,0 l/m 0,1 km/h (0 Bft) 0,00 h 0,00 h 0,3 km/h (0 Bft)
07.03.2011 08:00 11,1 C -0,6 C 0,0 UV-I 3,7 C 40 % 71 % 58 % 1032,7 hPa 0,0 l/m 0,4 km/h (0 Bft) 0,60 h 0,00 h 0,8 km/h (0 Bft)
07.03.2011 09:00 11,2 C 2,6 C 0,0 UV-I 7,3 C 40 % 56 % 100 % 1032,9 hPa 0,0 l/m 5,8 km/h (2 Bft) 1,00 h 0,00 h 7,4 km/h (2 Bft)
07.03.2011 10:00 11,5 C 4,9 C 0,0 UV-I 6,3 C 38 % 43 % 100 % 1033,2 hPa 0,0 l/m 9,8 km/h (2 Bft) 1,00 h 0,00 h 11,9 km/h (2 Bft)
07.03.2011 11:00 11,8 C 6,3 C 0,0 UV-I 5,9 C 38 % 37 % 100 % 1033,3 hPa 0,0 l/m 11,1 km/h (2 Bft) 1,00 h 0,00 h 13,3 km/h (3 Bft)
07.03.2011 12:00 12,6 C 7,6 C 0,1 UV-I 5,7 C 37 % 33 % 100 % 1033,0 hPa 0,0 l/m 10,9 km/h (2 Bft) 1,00 h 0,00 h 12,0 km/h (2 Bft)
07.03.2011 13:00 14,3 C 9,0 C 0,6 UV-I 5,8 C 35 % 30 % 100 % 1035,7 hPa 0,0 l/m 9,9 km/h (2 Bft) 1,00 h 0,00 h 10,9 km/h (2 Bft)
07.03.2011 14:00 16,2 C 10,0 C 0,0 UV-I 5,1 C 31 % 27 % 100 % 1035,1 hPa 0,0 l/m 10,4 km/h (2 Bft) 1,00 h 0,00 h 10,5 km/h (2 Bft)
07.03.2011 15:00 17,6 C 10,7 C 0,0 UV-I 4,5 C 29 % 26 % 100 % 1035,0 hPa 0,0 l/m 9,4 km/h (2 Bft) 1,00 h 0,00 h 9,4 km/h (2 Bft)
07.03.2011 16:00 18,2 C 10,5 C 0,0 UV-I 3,6 C 28 % 24 % 97 % 1033,4 hPa 0,0 l/m 9,2 km/h (2 Bft) 1,00 h 0,00 h 11,3 km/h (2 Bft)
07.03.2011 17:00 17,9 C 9,0 C 0,0 UV-I 1,4 C 28 % 25 % 40 % 1032,4 hPa 0,0 l/m 6,1 km/h (2 Bft) 0,47 h 0,00 h 6,2 km/h (2 Bft)
07.03.2011 18:00 16,8 C 7,6 C 0,0 UV-I 0,0 C 29 % 27 % 0 % 1031,0 hPa 0,0 l/m 3,8 km/h (1 Bft) 0,00 h 0,00 h 4,1 km/h (1 Bft)
07.03.2011 19:00 15,3 C 6,3 C 0,0 UV-I 0,0 C 29 % 30 % 0 % 1030,2 hPa 0,0 l/m 4,3 km/h (1 Bft) 0,00 h 0,00 h 5,9 km/h (2 Bft)
07.03.2011 20:00 14,3 C 5,7 C 0,0 UV-I 0,0 C 30 % 32 % 0 % 1029,6 hPa 0,0 l/m 5,1 km/h (1 Bft) 0,00 h 0,00 h 6,5 km/h (2 Bft)
07.03.2011 21:00 13,7 C 4,9 C 0,0 UV-I 0,0 C 31 % 34 % 0 % 1029,3 hPa 0,0 l/m 6,4 km/h (2 Bft) 0,00 h 0,00 h 7,0 km/h (2 Bft)
07.03.2011 22:00 13,3 C 4,1 C 0,0 UV-I 0,0 C 32 % 37 % 0 % 1028,8 hPa 0,0 l/m 6,4 km/h (2 Bft) 0,00 h 0,00 h 7,9 km/h (2 Bft)
07.03.2011 23:00 13,1 C 3,3 C 0,0 UV-I 0,0 C 32 % 40 % 0 % 1028,2 hPa 0,0 l/m 7,1 km/h (2 Bft) 0,00 h 0,00 h 8,4 km/h (2 Bft)
08.03.2011 00:00 12,8 C 2,8 C 0,0 UV-I 0,0 C 33 % 42 % 0 % 1027,6 hPa 0,0 l/m 7,7 km/h (2 Bft) 0,00 h 0,00 h 8,8 km/h (2 Bft)
08.03.2011 01:00 12,6 C 2,3 C 0,0 UV-I 0,0 C 33 % 44 % 0 % 1027,2 hPa 0,0 l/m 4,7 km/h (1 Bft) 0,00 h 0,00 h 5,7 km/h (1 Bft)
08.03.2011 02:00 12,4 C 1,3 C 0,0 UV-I 0,0 C 33 % 47 % 0 % 1027,4 hPa 0,0 l/m 1,5 km/h (1 Bft) 0,00 h 0,00 h 1,6 km/h (1 Bft)
08.03.2011 03:00 12,2 C 0,6 C 0,0 UV-I 0,0 C 33 % 49 % 0 % 1027,0 hPa 0,0 l/m 4,6 km/h (1 Bft) 0,00 h 0,00 h 5,7 km/h (1 Bft)
08.03.2011 04:00 12,0 C 0,9 C 0,0 UV-I 0,0 C 33 % 49 % 0 % 1026,4 hPa 0,0 l/m 5,9 km/h (2 Bft) 0,00 h 0,00 h 6,4 km/h (2 Bft)
08.03.2011 05:00 11,9 C 0,6 C 0,0 UV-I 0,0 C 33 % 51 % 0 % 1026,2 hPa 0,0 l/m 6,5 km/h (2 Bft) 0,00 h 0,00 h 7,5 km/h (2 Bft)
08.03.2011 06:00 11,7 C 0,1 C 0,0 UV-I 0,0 C 33 % 52 % 0 % 1025,5 hPa 0,0 l/m 5,4 km/h (1 Bft) 0,00 h 0,00 h 6,1 km/h (2 Bft)
08.03.2011 07:00 11,6 C -0,0 C 0,0 UV-I 0,0 C 33 % 53 % 0 % 1024,7 hPa 0,0 l/m 9,5 km/h (2 Bft) 0,00 h 0,00 h 10,9 km/h (2 Bft)
08.03.2011 08:00 11,5 C 0,6 C 0,0 UV-I 1,2 C 33 % 52 % 33 % 1024,6 hPa 0,0 l/m 15,1 km/h (3 Bft) 0,33 h 0,00 h 18,2 km/h (3 Bft)
08.03.2011 09:00 11,5 C 2,3 C 0,0 UV-I 4,2 C 33 % 49 % 99 % 1024,6 hPa 0,0 l/m 13,7 km/h (3 Bft) 1,00 h 0,00 h 15,6 km/h (3 Bft)
08.03.2011 10:00 11,6 C 4,3 C 0,0 UV-I 5,6 C 33 % 47 % 100 % 1024,1 hPa 0,0 l/m 10,9 km/h (2 Bft) 1,00 h 0,00 h 10,7 km/h (2 Bft)
08.03.2011 11:00 12,0 C 6,5 C 0,0 UV-I 6,1 C 34 % 44 % 100 % 1023,7 hPa 0,0 l/m 9,4 km/h (2 Bft) 1,00 h 0,00 h 10,1 km/h (2 Bft)
08.03.2011 12:00 12,9 C 9,0 C 0,0 UV-I 6,3 C 35 % 40 % 100 % 1023,6 hPa 0,0 l/m 8,1 km/h (2 Bft) 1,00 h 0,00 h 9,2 km/h (2 Bft)
08.03.2011 13:00 14,7 C 11,2 C 0,3 UV-I 6,2 C 33 % 37 % 100 % 1025,6 hPa 0,0 l/m 7,7 km/h (2 Bft) 1,00 h 0,00 h 8,3 km/h (2 Bft)
08.03.2011 14:00 16,5 C 12,4 C 0,0 UV-I 5,5 C 30 % 39 % 100 % 1024,8 hPa 0,0 l/m 8,5 km/h (2 Bft) 1,00 h 0,00 h 9,6 km/h (2 Bft)
08.03.2011 15:00 17,9 C 13,2 C 0,0 UV-I 4,4 C 29 % 39 % 100 % 1024,5 hPa 0,0 l/m 8,3 km/h (2 Bft) 1,00 h 0,00 h 8,9 km/h (2 Bft)
08.03.2011 16:00 18,5 C 13,1 C 0,0 UV-I 3,4 C 29 % 39 % 93 % 1023,3 hPa 0,0 l/m 8,7 km/h (2 Bft) 1,00 h 0,00 h 9,2 km/h (2 Bft)
08.03.2011 17:00 18,1 C 12,2 C 0,0 UV-I 1,1 C 30 % 42 % 33 % 1022,2 hPa 0,0 l/m 4,9 km/h (1 Bft) 0,43 h 0,00 h 6,3 km/h (2 Bft)
08.03.2011 18:00 17,0 C 10,9 C 0,0 UV-I 0,0 C 31 % 47 % 0 % 1020,8 hPa 0,0 l/m 0,5 km/h (0 Bft) 0,00 h 0,00 h 0,8 km/h (0 Bft)
08.03.2011 19:00 15,7 C 9,2 C 0,0 UV-I 0,0 C 33 % 53 % 0 % 1020,1 hPa 0,0 l/m 0,1 km/h (0 Bft) 0,00 h 0,00 h 0,2 km/h (0 Bft)
08.03.2011 20:00 14,9 C 7,5 C 0,0 UV-I 0,0 C 35 % 59 % 0 % 1019,7 hPa 0,0 l/m 0,5 km/h (0 Bft) 0,00 h 0,00 h 0,4 km/h (0 Bft)
08.03.2011 21:00 14,3 C 6,9 C 0,0 UV-I 0,0 C 37 % 62 % 0 % 1019,1 hPa 0,0 l/m 0,9 km/h (0 Bft) 0,00 h 0,00 h 1,7 km/h (1 Bft)
08.03.2011 22:00 14,0 C 6,1 C 0,0 UV-I 0,0 C 38 % 63 % 0 % 1018,8 hPa 0,0 l/m 0,6 km/h (0 Bft) 0,00 h 0,00 h 0,9 km/h (0 Bft)
08.03.2011 23:00 13,8 C 5,5 C 0,0 UV-I 0,0 C 39 % 67 % 0 % 1018,4 hPa 0,0 l/m 0,4 km/h (0 Bft) 0,00 h 0,00 h 0,8 km/h (0 Bft)
09.03.2011 00:00 13,6 C 4,9 C 0,0 UV-I 0,0 C 40 % 72 % 0 % 1017,5 hPa 0,0 l/m 0,0 km/h (0 Bft) 0,00 h 0,00 h 0,2 km/h (0 Bft)
09.03.2011 01:00 13,5 C 7,4 C 0,0 UV-I 0,0 C 43 % 74 % 0 % 1016,8 hPa 0,0 l/m 3,7 km/h (1 Bft) 0,00 h 0,00 h 6,2 km/h (2 Bft)
09.03.2011 02:00 13,6 C 8,8 C 0,0 UV-I 0,0 C 45 % 70 % 0 % 1016,6 hPa 0,0 l/m 4,6 km/h (1 Bft) 0,00 h 0,00 h 4,8 km/h (1 Bft)
09.03.2011 03:00 13,6 C 8,3 C 0,0 UV-I 0,0 C 45 % 70 % 0 % 1015,7 hPa 0,0 l/m 1,7 km/h (1 Bft) 0,00 h 0,00 h 2,0 km/h (1 Bft)
09.03.2011 04:00 13,6 C 8,2 C 0,0 UV-I 0,0 C 45 % 72 % 0 % 1015,6 hPa 0,0 l/m 2,1 km/h (1 Bft) 0,00 h 0,00 h 2,7 km/h (1 Bft)
09.03.2011 05:00 13,6 C 8,4 C 0,0 UV-I 0,0 C 46 % 72 % 0 % 1015,2 hPa 0,0 l/m 4,6 km/h (1 Bft) 0,00 h 0,00 h 6,6 km/h (2 Bft)
09.03.2011 06:00 13,6 C 8,3 C 0,0 UV-I 0,0 C 47 % 73 % 0 % 1015,2 hPa 0,0 l/m 4,6 km/h (1 Bft) 0,00 h 0,00 h 5,6 km/h (1 Bft)
09.03.2011 07:00 13,6 C 8,4 C 0,0 UV-I 0,0 C 48 % 75 % 0 % 1015,1 hPa 0,0 l/m 5,8 km/h (2 Bft) 0,00 h 0,00 h 7,3 km/h (2 Bft)
09.03.2011 08:00 13,6 C 8,6 C 0,0 UV-I 0,0 C 50 % 75 % 0 % 1015,4 hPa 0,0 l/m 11,6 km/h (2 Bft) 0,00 h 0,00 h 15,5 km/h (3 Bft)
09.03.2011 09:00 13,7 C 8,7 C 0,0 UV-I 0,1 C 49 % 73 % 4 % 1015,5 hPa 0,0 l/m 11,4 km/h (2 Bft) 0,00 h 0,00 h 12,2 km/h (2 Bft)
09.03.2011 10:00 14,0 C 9,3 C 0,0 UV-I 2,9 C 48 % 68 % 76 % 1015,8 hPa 0,0 l/m 12,0 km/h (2 Bft) 0,50 h 0,00 h 12,2 km/h (2 Bft)
09.03.2011 11:00 14,4 C 9,6 C 0,0 UV-I 0,6 C 46 % 67 % 17 % 1016,0 hPa 0,0 l/m 11,3 km/h (2 Bft) 0,00 h 0,00 h 11,9 km/h (2 Bft)
09.03.2011 12:00 14,3 C 9,0 C 0,0 UV-I 0,0 C 47 % 72 % 1 % 1016,2 hPa 0,0 l/m 13,1 km/h (3 Bft) 0,00 h 0,00 h 13,5 km/h (3 Bft)
09.03.2011 13:00 14,2 C 8,4 C 0,0 UV-I 0,0 C 49 % 78 % 0 % 1016,1 hPa 0,0 l/m 11,2 km/h (2 Bft) 0,00 h 0,00 h 12,2 km/h (2 Bft)
09.03.2011 14:00 14,0 C 8,0 C 0,0 UV-I 0,0 C 52 % 83 % 1 % 1015,9 hPa 0,1 l/m 8,1 km/h (2 Bft) 0,00 h 0,00 h 8,6 km/h (2 Bft)
09.03.2011 15:00 14,0 C 8,5 C 0,0 UV-I 0,0 C 52 % 81 % 0 % 1015,6 hPa 0,0 l/m 8,5 km/h (2 Bft) 0,00 h 0,00 h 9,4 km/h (2 Bft)
09.03.2011 16:00 14,0 C 8,8 C 0,0 UV-I 0,0 C 52 % 77 % 0 % 1015,6 hPa 0,0 l/m 9,8 km/h (2 Bft) 0,00 h 0,00 h 11,3 km/h (2 Bft)
09.03.2011 17:00 13,9 C 8,5 C 0,0 UV-I 0,0 C 52 % 77 % 0 % 1015,9 hPa 0,0 l/m 8,1 km/h (2 Bft) 0,00 h 0,00 h 8,4 km/h (2 Bft)
09.03.2011 18:00 13,7 C 7,5 C 0,0 UV-I 0,0 C 52 % 80 % 0 % 1016,4 hPa 0,0 l/m 5,9 km/h (2 Bft) 0,00 h 0,00 h 6,4 km/h (2 Bft)
09.03.2011 19:00 13,6 C 7,1 C 0,0 UV-I 0,0 C 51 % 81 % 0 % 1016,6 hPa 0,0 l/m 1,8 km/h (1 Bft) 0,00 h 0,00 h 2,4 km/h (1 Bft)
09.03.2011 20:00 13,5 C 7,2 C 0,0 UV-I 0,0 C 53 % 83 % 0 % 1016,6 hPa 0,0 l/m 3,8 km/h (1 Bft) 0,00 h 0,00 h 5,0 km/h (1 Bft)
09.03.2011 21:00 13,5 C 7,2 C 0,0 UV-I 0,0 C 53 % 85 % 0 % 1016,8 hPa 0,0 l/m 2,8 km/h (1 Bft) 0,00 h 0,00 h 3,1 km/h (1 Bft)
09.03.2011 22:00 13,4 C 6,8 C 0,0 UV-I 0,0 C 53 % 83 % 0 % 1016,9 hPa 0,0 l/m 1,8 km/h (1 Bft) 0,00 h 0,00 h 2,3 km/h (1 Bft)
09.03.2011 23:00 13,3 C 6,1 C 0,0 UV-I 0,0 C 53 % 84 % 0 % 1016,6 hPa 0,0 l/m 1,8 km/h (1 Bft) 0,00 h 0,00 h 2,9 km/h (1 Bft)
10.03.2011 00:00 13,2 C 5,6 C 0,0 UV-I 0,0 C 52 % 85 % 0 % 1016,7 hPa 0,0 l/m 1,7 km/h (1 Bft) 0,00 h 0,00 h 3,6 km/h (1 Bft)
10.03.2011 01:00 13,1 C 5,2 C 0,0 UV-I 0,0 C 52 % 86 % 0 % 1016,3 hPa 0,0 l/m 2,5 km/h (1 Bft) 0,00 h 0,00 h 4,6 km/h (1 Bft)
10.03.2011 02:00 13,0 C 5,4 C 0,0 UV-I 0,0 C 52 % 86 % 0 % 1016,0 hPa 0,0 l/m 4,1 km/h (1 Bft) 0,00 h 0,00 h 5,9 km/h (2 Bft)
10.03.2011 03:00 12,8 C 5,2 C 0,0 UV-I 0,0 C 53 % 86 % 0 % 1015,6 hPa 0,0 l/m 3,5 km/h (1 Bft) 0,00 h 0,00 h 5,3 km/h (1 Bft)
10.03.2011 04:00 12,8 C 5,1 C 0,0 UV-I 0,0 C 53 % 88 % 0 % 1015,1 hPa 0,0 l/m 4,4 km/h (1 Bft) 0,00 h 0,00 h 6,0 km/h (2 Bft)
10.03.2011 05:00 12,7 C 5,1 C 0,0 UV-I 0,0 C 53 % 88 % 0 % 1014,9 hPa 0,0 l/m 7,5 km/h (2 Bft) 0,00 h 0,00 h 8,1 km/h (2 Bft)
10.03.2011 06:00 12,6 C 5,1 C 0,0 UV-I 0,0 C 53 % 88 % 0 % 1014,7 hPa 0,0 l/m 7,9 km/h (2 Bft) 0,00 h 0,00 h 10,5 km/h (2 Bft)
10.03.2011 07:00 12,4 C 4,9 C 0,0 UV-I 0,0 C 53 % 87 % 0 % 1014,5 hPa 0,0 l/m 6,9 km/h (2 Bft) 0,00 h 0,00 h 10,4 km/h (2 Bft)
10.03.2011 08:00 12,4 C 5,5 C 0,0 UV-I 0,3 C 53 % 85 % 7 % 1014,2 hPa 0,0 l/m 9,2 km/h (2 Bft) 0,00 h 0,00 h 12,1 km/h (2 Bft)
10.03.2011 09:00 12,6 C 6,3 C 0,0 UV-I 0,4 C 52 % 81 % 10 % 1014,4 hPa 0,0 l/m 12,1 km/h (2 Bft) 0,00 h 0,00 h 14,1 km/h (3 Bft)
10.03.2011 10:00 12,8 C 6,9 C 0,0 UV-I 0,0 C 52 % 80 % 0 % 1014,5 hPa 0,0 l/m 13,6 km/h (3 Bft) 0,00 h 0,00 h 15,9 km/h (3 Bft)
10.03.2011 11:00 13,0 C 7,8 C 0,0 UV-I 0,0 C 52 % 78 % 1 % 1014,7 hPa 0,0 l/m 15,6 km/h (3 Bft) 0,00 h 0,00 h 17,8 km/h (3 Bft)
10.03.2011 12:00 13,2 C 8,6 C 0,0 UV-I 0,2 C 52 % 74 % 6 % 1014,2 hPa 0,0 l/m 13,2 km/h (3 Bft) 0,00 h 0,00 h 14,0 km/h (3 Bft)
10.03.2011 13:00 13,4 C 9,2 C 0,0 UV-I 0,1 C 52 % 72 % 2 % 1013,5 hPa 0,0 l/m 14,2 km/h (3 Bft) 0,00 h 0,00 h 15,4 km/h (3 Bft)
10.03.2011 14:00 13,4 C 9,3 C 0,0 UV-I 0,0 C 52 % 72 % 0 % 1012,7 hPa 0,0 l/m 11,8 km/h (2 Bft) 0,00 h 0,00 h 13,1 km/h (3 Bft)
10.03.2011 15:00 13,3 C 9,4 C 0,0 UV-I 0,0 C 53 % 74 % 0 % 1012,4 hPa 0,0 l/m 13,9 km/h (3 Bft) 0,00 h 0,00 h 14,4 km/h (3 Bft)
10.03.2011 16:00 13,4 C 9,1 C 0,0 UV-I 0,0 C 54 % 78 % 0 % 1012,4 hPa 0,0 l/m 12,4 km/h (3 Bft) 0,00 h 0,00 h 12,6 km/h (3 Bft)
10.03.2011 17:00 13,4 C 8,6 C 0,0 UV-I 0,0 C 55 % 82 % 0 % 1012,6 hPa 0,3 l/m 10,8 km/h (2 Bft) 0,00 h 0,00 h 11,4 km/h (2 Bft)
10.03.2011 18:00 13,2 C 8,3 C 0,0 UV-I 0,0 C 57 % 84 % 0 % 1012,6 hPa 0,2 l/m 10,5 km/h (2 Bft) 0,00 h 0,00 h 12,2 km/h (2 Bft)
10.03.2011 19:00 13,2 C 8,9 C 0,0 UV-I 0,0 C 56 % 80 % 0 % 1012,5 hPa 0,0 l/m 11,8 km/h (2 Bft) 0,00 h 0,00 h 13,4 km/h (3 Bft)
10.03.2011 20:00 13,3 C 9,4 C 0,0 UV-I 0,0 C 56 % 77 % 0 % 1012,4 hPa 0,0 l/m 13,6 km/h (3 Bft) 0,00 h 0,00 h 15,1 km/h (3 Bft)
10.03.2011 21:00 13,4 C 9,4 C 0,0 UV-I 0,0 C 56 % 79 % 0 % 1012,4 hPa 0,0 l/m 14,5 km/h (3 Bft) 0,00 h 0,00 h 14,9 km/h (3 Bft)
10.03.2011 22:00 13,5 C 9,5 C 0,0 UV-I 0,0 C 57 % 79 % 0 % 1012,7 hPa 0,0 l/m 13,3 km/h (3 Bft) 0,00 h 0,00 h 16,5 km/h (3 Bft)
10.03.2011 23:00 13,5 C 9,6 C 0,0 UV-I 0,0 C 57 % 78 % 0 % 1012,8 hPa 0,0 l/m 13,2 km/h (3 Bft) 0,00 h 0,00 h 13,5 km/h (3 Bft)
11.03.2011 00:00 13,5 C 9,6 C 0,0 UV-I 0,0 C 57 % 78 % 0 % 1012,9 hPa 0,0 l/m 12,5 km/h (3 Bft) 0,00 h 0,00 h 13,0 km/h (3 Bft)
11.03.2011 01:00 13,5 C 9,6 C 0,0 UV-I 0,0 C 57 % 78 % 0 % 1013,0 hPa 0,0 l/m 11,8 km/h (2 Bft) 0,00 h 0,00 h 11,1 km/h (2 Bft)
11.03.2011 02:00 13,5 C 9,4 C 0,0 UV-I 0,0 C 57 % 79 % 0 % 1013,3 hPa 0,0 l/m 10,2 km/h (2 Bft) 0,00 h 0,00 h 11,2 km/h (2 Bft)
11.03.2011 03:00 13,5 C 9,2 C 0,0 UV-I 0,0 C 58 % 81 % 0 % 1013,7 hPa 0,0 l/m 8,8 km/h (2 Bft) 0,00 h 0,00 h 9,6 km/h (2 Bft)
11.03.2011 04:00 13,5 C 9,1 C 0,0 UV-I 0,0 C 58 % 81 % 0 % 1013,9 hPa 0,0 l/m 7,0 km/h (2 Bft) 0,00 h 0,00 h 7,8 km/h (2 Bft)
11.03.2011 05:00 13,4 C 8,9 C 0,0 UV-I 0,0 C 57 % 80 % 0 % 1014,3 hPa 0,0 l/m 7,0 km/h (2 Bft) 0,00 h 0,00 h 8,8 km/h (2 Bft)
11.03.2011 06:00 13,4 C 8,6 C 0,0 UV-I 0,0 C 57 % 81 % 0 % 1014,8 hPa 0,0 l/m 4,2 km/h (1 Bft) 0,00 h 0,00 h 5,0 km/h (1 Bft)
11.03.2011 07:00 13,5 C 8,3 C 0,0 UV-I 0,0 C 57 % 82 % 0 % 1015,4 hPa 0,0 l/m 4,6 km/h (1 Bft) 0,00 h 0,00 h 5,6 km/h (1 Bft)
11.03.2011 08:00 13,5 C 8,4 C 0,0 UV-I 0,1 C 57 % 82 % 2 % 1015,6 hPa 0,0 l/m 5,3 km/h (1 Bft) 0,00 h 0,00 h 6,1 km/h (2 Bft)
11.03.2011 09:00 13,6 C 8,7 C 0,0 UV-I 0,4 C 57 % 81 % 12 % 1016,4 hPa 0,0 l/m 7,7 km/h (2 Bft) 0,00 h 0,00 h 8,8 km/h (2 Bft)
11.03.2011 10:00 13,8 C 9,2 C 0,0 UV-I 1,3 C 56 % 78 % 36 % 1016,9 hPa 0,0 l/m 7,3 km/h (2 Bft) 0,00 h 0,00 h 9,3 km/h (2 Bft)
11.03.2011 11:00 14,1 C 10,0 C 0,0 UV-I 2,7 C 55 % 71 % 75 % 1017,8 hPa 0,0 l/m 11,1 km/h (2 Bft) 0,40 h 0,00 h 11,2 km/h (2 Bft)
11.03.2011 12:00 14,6 C 10,8 C 0,0 UV-I 3,3 C 53 % 61 % 90 % 1018,0 hPa 0,0 l/m 10,6 km/h (2 Bft) 0,77 h 0,00 h 11,4 km/h (2 Bft)
11.03.2011 13:00 15,6 C 11,4 C 0,0 UV-I 3,1 C 49 % 57 % 81 % 1018,6 hPa 0,0 l/m 9,6 km/h (2 Bft) 0,53 h 0,00 h 9,6 km/h (2 Bft)
11.03.2011 14:00 16,5 C 12,1 C 0,0 UV-I 3,7 C 46 % 55 % 86 % 1018,5 hPa 0,0 l/m 8,8 km/h (2 Bft) 0,70 h 0,00 h 9,9 km/h (2 Bft)
11.03.2011 15:00 17,2 C 12,0 C 0,0 UV-I 2,1 C 43 % 54 % 59 % 1018,4 hPa 0,0 l/m 8,9 km/h (2 Bft) 0,23 h 0,00 h 9,0 km/h (2 Bft)
11.03.2011 16:00 17,2 C 11,7 C 0,0 UV-I 1,3 C 42 % 55 % 37 % 1017,7 hPa 0,0 l/m 8,9 km/h (2 Bft) 0,00 h 0,00 h 9,5 km/h (2 Bft)
11.03.2011 17:00 16,8 C 11,0 C 0,0 UV-I 0,0 C 42 % 59 % 1 % 1017,1 hPa 0,0 l/m 4,4 km/h (1 Bft) 0,00 h 0,00 h 4,3 km/h (1 Bft)
11.03.2011 18:00 16,0 C 10,2 C 0,0 UV-I 0,0 C 44 % 62 % 0 % 1016,2 hPa 0,0 l/m 0,8 km/h (0 Bft) 0,00 h 0,00 h 1,4 km/h (1 Bft)
11.03.2011 19:00 15,1 C 8,9 C 0,0 UV-I 0,0 C 46 % 67 % 0 % 1016,2 hPa 0,0 l/m 0,3 km/h (0 Bft) 0,00 h 0,00 h 0,8 km/h (0 Bft)
11.03.2011 20:00 14,7 C 8,2 C 0,0 UV-I 0,0 C 48 % 71 % 0 % 1016,2 hPa 0,0 l/m 0,4 km/h (0 Bft) 0,00 h 0,00 h 0,4 km/h (0 Bft)
11.03.2011 21:00 14,3 C 6,8 C 0,0 UV-I 0,0 C 49 % 75 % 0 % 1016,1 hPa 0,0 l/m 0,4 km/h (0 Bft) 0,00 h 0,00 h 0,7 km/h (0 Bft)
11.03.2011 22:00 14,1 C 6,0 C 0,0 UV-I 0,0 C 50 % 78 % 0 % 1016,0 hPa 0,0 l/m 0,8 km/h (0 Bft) 0,00 h 0,00 h 1,7 km/h (1 Bft)
11.03.2011 23:00 13,9 C 5,6 C 0,0 UV-I 0,0 C 51 % 80 % 0 % 1015,9 hPa 0,0 l/m 1,1 km/h (1 Bft) 0,00 h 0,00 h 1,3 km/h (1 Bft)
12.03.2011 00:00 13,7 C 5,1 C 0,0 UV-I 0,0 C 51 % 81 % 0 % 1015,0 hPa 0,0 l/m 1,0 km/h (0 Bft) 0,00 h 0,00 h 1,8 km/h (1 Bft)
12.03.2011 01:00 13,6 C 4,8 C 0,0 UV-I 0,0 C 51 % 83 % 0 % 1014,6 hPa 0,0 l/m 3,5 km/h (1 Bft) 0,00 h 0,00 h 4,1 km/h (1 Bft)
12.03.2011 02:00 13,5 C 4,6 C 0,0 UV-I 0,0 C 52 % 84 % 0 % 1014,2 hPa 0,0 l/m 1,3 km/h (1 Bft) 0,00 h 0,00 h 1,5 km/h (1 Bft)
12.03.2011 03:00 13,4 C 4,3 C 0,0 UV-I 0,0 C 52 % 85 % 0 % 1013,5 hPa 0,0 l/m 4,8 km/h (1 Bft) 0,00 h 0,00 h 5,5 km/h (1 Bft)
12.03.2011 04:00 13,3 C 4,0 C 0,0 UV-I 0,0 C 52 % 85 % 0 % 1012,6 hPa 0,0 l/m 4,6 km/h (1 Bft) 0,00 h 0,00 h 5,0 km/h (1 Bft)
12.03.2011 05:00 13,2 C 3,4 C 0,0 UV-I 0,0 C 52 % 86 % 0 % 1012,2 hPa 0,0 l/m 1,2 km/h (1 Bft) 0,00 h 0,00 h 1,4 km/h (1 Bft)
12.03.2011 06:00 13,1 C 3,2 C 0,0 UV-I 0,0 C 51 % 87 % 0 % 1011,4 hPa 0,0 l/m 4,0 km/h (1 Bft) 0,00 h 0,00 h 5,1 km/h (1 Bft)
12.03.2011 07:00 13,0 C 3,5 C 0,0 UV-I 0,0 C 51 % 87 % 0 % 1010,9 hPa 0,0 l/m 4,1 km/h (1 Bft) 0,00 h 0,00 h 5,1 km/h (1 Bft)
12.03.2011 08:00 13,0 C 4,5 C 0,0 UV-I 1,0 C 52 % 87 % 29 % 1010,1 hPa 0,0 l/m 5,0 km/h (1 Bft) 0,00 h 0,00 h 6,3 km/h (2 Bft)
12.03.2011 09:00 13,2 C 6,5 C 0,0 UV-I 3,0 C 52 % 84 % 86 % 1009,9 hPa 0,0 l/m 6,7 km/h (2 Bft) 0,60 h 0,00 h 8,8 km/h (2 Bft)
12.03.2011 10:00 13,6 C 8,6 C 0,0 UV-I 2,9 C 52 % 76 % 81 % 1008,9 hPa 0,0 l/m 12,1 km/h (2 Bft) 0,40 h 0,00 h 13,5 km/h (3 Bft)
12.03.2011 11:00 14,0 C 10,9 C 0,0 UV-I 4,5 C 52 % 67 % 99 % 1008,2 hPa 0,0 l/m 12,0 km/h (2 Bft) 1,00 h 0,00 h 14,2 km/h (3 Bft)
12.03.2011 12:00 14,7 C 12,8 C 0,0 UV-I 3,7 C 51 % 61 % 97 % 1007,4 hPa 0,0 l/m 10,7 km/h (2 Bft) 1,00 h 0,00 h 10,3 km/h (2 Bft)
12.03.2011 13:00 15,5 C 13,7 C 0,0 UV-I 2,2 C 49 % 58 % 61 % 1007,4 hPa 0,0 l/m 10,5 km/h (2 Bft) 0,10 h 0,00 h 10,3 km/h (2 Bft)
12.03.2011 14:00 16,2 C 14,9 C 0,0 UV-I 3,0 C 48 % 56 % 81 % 1006,8 hPa 0,0 l/m 7,0 km/h (2 Bft) 0,43 h 0,00 h 6,7 km/h (2 Bft)
12.03.2011 15:00 16,8 C 15,5 C 0,0 UV-I 1,6 C 46 % 50 % 47 % 1006,0 hPa 0,0 l/m 7,4 km/h (2 Bft) 0,00 h 0,00 h 8,2 km/h (2 Bft)
12.03.2011 16:00 16,8 C 15,4 C 0,0 UV-I 0,6 C 45 % 49 % 16 % 1005,5 hPa 0,0 l/m 5,5 km/h (1 Bft) 0,00 h 0,00 h 5,7 km/h (1 Bft)
12.03.2011 17:00 16,4 C 14,6 C 0,0 UV-I 0,0 C 45 % 53 % 0 % 1004,7 hPa 0,0 l/m 1,9 km/h (1 Bft) 0,00 h 0,00 h 1,8 km/h (1 Bft)
12.03.2011 18:00 15,8 C 13,7 C 0,0 UV-I 0,0 C 47 % 57 % 0 % 1004,3 hPa 0,0 l/m 0,1 km/h (0 Bft) 0,00 h 0,00 h 0,4 km/h (0 Bft)
12.03.2011 19:00 15,5 C 12,2 C 0,0 UV-I 0,0 C 48 % 63 % 0 % 1004,3 hPa 0,0 l/m 0,0 km/h (0 Bft) 0,00 h 0,00 h 0,0 km/h (0 Bft)
12.03.2011 20:00 15,2 C 11,7 C 0,0 UV-I 0,0 C 50 % 66 % 0 % 1004,1 hPa 0,0 l/m 0,3 km/h (0 Bft) 0,00 h 0,00 h 0,5 km/h (0 Bft)
12.03.2011 21:00 15,2 C 12,1 C 0,0 UV-I 0,0 C 51 % 67 % 0 % 1004,0 hPa 0,1 l/m 0,8 km/h (0 Bft) 0,00 h 0,00 h 0,9 km/h (0 Bft)
12.03.2011 22:00 15,1 C 11,6 C 0,0 UV-I 0,0 C 52 % 71 % 0 % 1004,7 hPa 0,1 l/m 2,8 km/h (1 Bft) 0,00 h 0,00 h 3,9 km/h (1 Bft)
12.03.2011 23:00 15,2 C 11,3 C 0,0 UV-I 0,0 C 53 % 73 % 0 % 1004,8 hPa 0,1 l/m 1,5 km/h (1 Bft) 0,00 h 0,00 h 1,6 km/h (1 Bft)
13.03.2011 00:00 15,0 C 10,5 C 0,0 UV-I 0,0 C 54 % 78 % 0 % 1004,7 hPa 0,2 l/m 0,7 km/h (0 Bft) 0,00 h 0,00 h 1,4 km/h (1 Bft)
13.03.2011 01:00 14,9 C 9,8 C 0,0 UV-I 0,0 C 55 % 81 % 0 % 1004,3 hPa 0,0 l/m 0,3 km/h (0 Bft) 0,00 h 0,00 h 0,8 km/h (0 Bft)
13.03.2011 02:00 14,8 C 9,6 C 0,0 UV-I 0,0 C 55 % 80 % 0 % 1003,9 hPa 0,0 l/m 2,0 km/h (1 Bft) 0,00 h 0,00 h 2,9 km/h (1 Bft)
13.03.2011 03:00 14,8 C 9,6 C 0,0 UV-I 0,0 C 55 % 79 % 0 % 1003,5 hPa 0,0 l/m 3,8 km/h (1 Bft) 0,00 h 0,00 h 4,4 km/h (1 Bft)
13.03.2011 04:00 14,8 C 9,5 C 0,0 UV-I 0,0 C 55 % 78 % 0 % 1003,5 hPa 0,0 l/m 4,8 km/h (1 Bft) 0,00 h 0,00 h 5,9 km/h (2 Bft)
13.03.2011 05:00 14,6 C 9,5 C 0,0 UV-I 0,0 C 55 % 78 % 0 % 1003,5 hPa 0,0 l/m 3,6 km/h (1 Bft) 0,00 h 0,00 h 4,5 km/h (1 Bft)
13.03.2011 06:00 14,6 C 9,5 C 0,0 UV-I 0,0 C 55 % 79 % 0 % 1003,6 hPa 0,0 l/m 4,6 km/h (1 Bft) 0,00 h 0,00 h 5,2 km/h (1 Bft)
13.03.2011 07:00 14,7 C 9,4 C 0,0 UV-I 0,0 C 55 % 79 % 0 % 1003,7 hPa 0,0 l/m 4,2 km/h (1 Bft) 0,00 h 0,00 h 5,2 km/h (1 Bft)
13.03.2011 08:00 14,8 C 10,2 C 0,0 UV-I 0,8 C 55 % 80 % 23 % 1004,2 hPa 0,1 l/m 7,5 km/h (2 Bft) 0,13 h 0,00 h 9,1 km/h (2 Bft)
13.03.2011 09:00 15,1 C 11,8 C 0,0 UV-I 3,4 C 56 % 77 % 93 % 1004,8 hPa 0,0 l/m 8,3 km/h (2 Bft) 0,80 h 0,00 h 10,1 km/h (2 Bft)
13.03.2011 10:00 15,4 C 12,5 C 0,0 UV-I 1,7 C 55 % 73 % 49 % 1005,0 hPa 0,0 l/m 8,3 km/h (2 Bft) 0,00 h 0,00 h 9,6 km/h (2 Bft)
13.03.2011 11:00 15,7 C 13,0 C 0,0 UV-I 1,2 C 55 % 71 % 34 % 1005,3 hPa 0,0 l/m 6,3 km/h (2 Bft) 0,00 h 0,00 h 7,3 km/h (2 Bft)
13.03.2011 12:00 15,7 C 12,9 C 0,0 UV-I 0,2 C 54 % 70 % 6 % 1005,2 hPa 0,0 l/m 6,2 km/h (2 Bft) 0,00 h 0,00 h 8,1 km/h (2 Bft)
13.03.2011 13:00 15,7 C 13,1 C 0,0 UV-I 1,0 C 54 % 70 % 28 % 1005,0 hPa 0,0 l/m 5,7 km/h (1 Bft) 0,00 h 0,00 h 7,0 km/h (2 Bft)
13.03.2011 14:00 15,9 C 13,5 C 0,0 UV-I 0,6 C 54 % 68 % 18 % 1005,2 hPa 0,0 l/m 6,0 km/h (2 Bft) 0,00 h 0,00 h 6,4 km/h (2 Bft)
13.03.2011 15:00 15,9 C 13,3 C 0,0 UV-I 0,1 C 54 % 68 % 2 % 1005,3 hPa 0,0 l/m 3,0 km/h (1 Bft) 0,00 h 0,00 h 3,6 km/h (1 Bft)
13.03.2011 16:00 15,8 C 13,1 C 0,0 UV-I 0,0 C 54 % 70 % 0 % 1005,4 hPa 0,0 l/m 1,2 km/h (1 Bft) 0,00 h 0,00 h 1,6 km/h (1 Bft)
13.03.2011 17:00 15,8 C 13,2 C 0,0 UV-I 0,0 C 54 % 70 % 0 % 1005,8 hPa 0,0 l/m 0,9 km/h (0 Bft) 0,00 h 0,00 h 1,1 km/h (0 Bft)
13.03.2011 18:00 15,7 C 12,8 C 0,0 UV-I 0,0 C 55 % 71 % 0 % 1006,3 hPa 0,0 l/m 0,0 km/h (0 Bft) 0,00 h 0,00 h 0,0 km/h (0 Bft)
13.03.2011 19:00 15,6 C 12,1 C 0,0 UV-I 0,0 C 55 % 74 % 0 % 1006,6 hPa 0,0 l/m 0,0 km/h (0 Bft) 0,00 h 0,00 h 0,0 km/h (0 Bft)
13.03.2011 20:00 15,5 C 11,7 C 0,0 UV-I 0,0 C 56 % 75 % 0 % 1007,0 hPa 0,0 l/m 0,0 km/h (0 Bft) 0,00 h 0,00 h 0,0 km/h (0 Bft)
13.03.2011 21:00 15,5 C 11,4 C 0,0 UV-I 0,0 C 57 % 79 % 0 % 1007,6 hPa 0,0 l/m 1,0 km/h (0 Bft) 0,00 h 0,00 h 1,5 km/h (1 Bft)
13.03.2011 22:00 15,4 C 10,6 C 0,0 UV-I 0,0 C 58 % 84 % 0 % 1008,4 hPa 0,1 l/m 0,0 km/h (0 Bft) 0,00 h 0,00 h 0,0 km/h (0 Bft)
13.03.2011 23:00 15,4 C 10,4 C 0,0 UV-I 0,0 C 58 % 87 % 0 % 1008,7 hPa 0,2 l/m 0,6 km/h (0 Bft) 0,00 h 0,00 h 0,9 km/h (0 Bft)
Min-Datum _ 07.03.11 07.03.11 07.03.11 07.03.11 07.03.11 07.03.11 07.03.11 13.03.11 - 07.03.11 - - 07.03.11
_ Min-Zeit 08:04 05:48 00:00 00:00 15:40 16:46 00:00 03:46 - 00:00 - - 00:00
Minimum _ 10,9 C -3,0 C 0,0 UV-I 0,0 C 28 % 23 % 0 % 1003,3 hPa - 0,0 km/h (0 Bft) - - 0,0 km/h (0 Bft)
Max-Datum _ 08.03.11 12.03.11 07.03.11 07.03.11 13.03.11 10.03.11 07.03.11 07.03.11 10.03.11 10.03.11 07.03.11 07.03.11 10.03.11
_ Max-Zeit 16:22 15:32 13:08 09:00 23:32 04:24 08:30 13:26 17:10 10:30 08:24 00:00 15:04
Maximum _ 18,6 C 15,8 C 0,8 UV-I 8,5 C 59 % 88 % 100 % 1036,3 hPa 0,3 l/m 18,5 km/h
W-SW (3 Bft)
0,03 h 0,00 h 44,4 km/h
W-SW (6 Bft)
Durchschnitt _ 14,1 C 7,8 C 0,0 UV-I 0,9 C 47 % 68 % 19 % 1016,5 hPa #1,4 l/m 5,9 km/h (2 Bft) #25:26 h #0 min. 6,8 km/h (2 Bft)
© 2012 W. Hausmann